Time;durP1;ratioP1;P1;durP2;ratioP2;P2;SDS_P1;SDS_P2;PMS_P1;PMS_P2;Temp;Humidity;BMP_temperature;BMP_pressure;BME280_temperature;BME280_humidity;BME280_pressure;Samples;Min_cycle;Max_cycle;Signal;HPM_P1;HPM_P2
2021/10/17 00:02:02;;;;;;;3.90;3.50;;;19.30;96.90;;;;;;5057532;28;20463;-64
2021/10/17 00:04:33;;;;;;;3.77;3.47;;;19.20;97.80;;;;;;5060570;28;20466;-64
2021/10/17 00:07:04;;;;;;;4.00;3.40;;;19.20;98.70;;;;;;5040306;28;20456;-64
2021/10/17 00:09:37;;;;;;;3.37;3.07;;;19.10;98.40;;;;;;5066847;28;20774;-64
2021/10/17 00:12:09;;;;;;;4.20;3.40;;;19.10;97.00;;;;;;5053753;28;20526;-64
2021/10/17 00:14:40;;;;;;;4.03;3.10;;;19.10;97.10;;;;;;5044799;28;20463;-64
2021/10/17 00:17:11;;;;;;;6.90;3.17;;;19.00;98.60;;;;;;5069305;28;20451;-64
2021/10/17 00:19:42;;;;;;;4.50;3.83;;;18.90;99.00;;;;;;5060407;28;20815;-64
2021/10/17 00:22:13;;;;;;;5.60;4.10;;;19.00;98.00;;;;;;5044644;28;20475;-65
2021/10/17 00:24:45;;;;;;;5.47;4.33;;;19.00;97.40;;;;;;5046856;28;20929;-64
2021/10/17 00:27:16;;;;;;;5.50;3.97;;;18.80;98.80;;;;;;5056894;28;20434;-65
2021/10/17 00:29:47;;;;;;;4.57;3.77;;;18.70;99.90;;;;;;5057460;28;20443;-64
2021/10/17 00:32:18;;;;;;;5.70;4.33;;;18.70;99.90;;;;;;5049735;28;20492;-64
2021/10/17 00:34:49;;;;;;;5.60;4.20;;;18.60;99.90;;;;;;5052236;28;20782;-64
2021/10/17 00:37:20;;;;;;;4.20;3.90;;;18.50;99.50;;;;;;5057949;28;20464;-65
2021/10/17 00:39:52;;;;;;;4.50;3.60;;;18.50;99.90;;;;;;5069754;28;20474;-64
2021/10/17 00:42:23;;;;;;;4.30;3.90;;;18.50;99.70;;;;;;5057667;28;20478;-64
2021/10/17 00:44:58;;;;;;;4.83;3.50;;;18.40;99.90;;;;;;5045794;28;20462;-64
2021/10/17 00:47:29;;;;;;;4.37;3.97;;;18.40;99.90;;;;;;5046605;28;20466;-64
2021/10/17 00:50:00;;;;;;;8.13;3.80;;;18.30;99.90;;;;;;5046349;28;20445;-64
2021/10/17 00:52:31;;;;;;;4.00;3.60;;;18.20;99.90;;;;;;5054969;28;20468;-64
2021/10/17 00:55:04;;;;;;;5.00;4.00;;;18.10;99.90;;;;;;5054846;28;20448;-64
2021/10/17 00:57:35;;;;;;;5.40;4.07;;;18.10;99.90;;;;;;5043063;28;20464;-64
2021/10/17 01:00:07;;;;;;;4.57;4.17;;;18.00;99.90;;;;;;5053471;28;20827;-64
2021/10/17 01:02:38;;;;;;;4.60;3.70;;;17.80;99.90;;;;;;5044302;28;20511;-64
2021/10/17 01:05:13;;;;;;;4.23;3.90;;;17.70;99.90;;;;;;5044713;28;20568;-66
2021/10/17 01:07:44;;;;;;;7.43;4.10;;;17.60;99.90;;;;;;5035835;28;20490;-64
2021/10/17 01:10:18;;;;;;;5.03;4.17;;;17.40;99.90;;;;;;5043445;28;20530;-66
2021/10/17 01:12:48;;;;;;;4.43;3.80;;;17.30;99.90;;;;;;5046675;28;20470;-66
2021/10/17 01:15:19;;;;;;;4.53;4.13;;;17.10;99.90;;;;;;5047482;28;20454;-66
2021/10/17 01:17:50;;;;;;;4.07;3.77;;;16.90;99.90;;;;;;5050018;28;20446;-66
2021/10/17 01:20:23;;;;;;;9.77;4.30;;;16.70;99.90;;;;;;5055157;28;20517;-67
2021/10/17 01:22:55;;;;;;;7.60;5.00;;;16.50;99.90;;;;;;5062409;28;20783;-66
2021/10/17 01:25:26;;;;;;;6.00;4.50;;;16.40;99.90;;;;;;5044512;28;20545;-66
2021/10/17 01:27:56;;;;;;;4.83;4.40;;;16.30;99.90;;;;;;5054686;28;20452;-65
2021/10/17 01:30:31;;;;;;;5.20;4.60;;;16.10;99.90;;;;;;5057689;28;20487;-66
2021/10/17 01:33:03;;;;;;;4.70;4.30;;;15.90;99.90;;;;;;5055278;28;20987;-66
2021/10/17 01:35:35;;;;;;;6.20;5.60;;;15.80;99.90;;;;;;5049770;28;20618;-66
2021/10/17 01:38:07;;;;;;;5.40;5.00;;;15.70;99.90;;;;;;5046008;28;20483;-66
2021/10/17 01:40:38;;;;;;;5.83;5.23;;;15.60;99.90;;;;;;5052002;28;20495;-65
2021/10/17 01:43:09;;;;;;;9.57;5.10;;;15.50;99.90;;;;;;5056161;28;20488;-65
2021/10/17 01:45:40;;;;;;;6.07;5.57;;;15.40;99.90;;;;;;5052421;28;20491;-66
2021/10/17 01:48:11;;;;;;;7.03;6.33;;;15.30;99.90;;;;;;5049913;28;20460;-66
2021/10/17 01:50:43;;;;;;;6.70;6.20;;;15.20;99.90;;;;;;5037260;28;20462;-66
2021/10/17 01:53:14;;;;;;;8.40;7.57;;;15.10;99.90;;;;;;5051646;28;20471;-68
2021/10/17 01:55:45;;;;;;;12.30;11.10;;;15.00;99.90;;;;;;5059769;28;20456;-65
2021/10/17 01:58:15;;;;;;;15.33;13.93;;;14.90;99.90;;;;;;5068480;28;20462;-67
2021/10/17 02:00:46;;;;;;;17.57;15.80;;;14.80;99.90;;;;;;5057673;28;20452;-68
2021/10/17 02:03:18;;;;;;;14.73;13.47;;;14.80;99.90;;;;;;5047950;28;20820;-68
2021/10/17 02:05:50;;;;;;;13.63;11.27;;;14.70;99.90;;;;;;5050512;28;20961;-68
2021/10/17 02:08:21;;;;;;;12.47;11.20;;;14.70;99.90;;;;;;5058006;28;20460;-69
2021/10/17 02:10:52;;;;;;;12.83;10.10;;;14.60;99.90;;;;;;5056751;28;20503;-69
2021/10/17 02:13:23;;;;;;;9.90;8.83;;;14.60;99.90;;;;;;5057575;28;20451;-68
2021/10/17 02:15:54;;;;;;;10.33;8.90;;;14.50;99.90;;;;;;5050165;28;20945;-65
2021/10/17 02:18:24;;;;;;;10.77;8.63;;;14.40;99.90;;;;;;5042846;28;20898;-64
2021/10/17 02:20:57;;;;;;;12.73;11.43;;;14.40;99.90;;;;;;5050348;28;20471;-65
2021/10/17 02:23:28;;;;;;;13.67;12.37;;;14.30;99.90;;;;;;5048603;28;20471;-64
2021/10/17 02:25:59;;;;;;;15.13;12.30;;;14.30;99.90;;;;;;5050879;28;20488;-64
2021/10/17 02:28:30;;;;;;;14.53;13.00;;;14.30;99.90;;;;;;5059514;28;20464;-64
2021/10/17 02:31:00;;;;;;;14.57;13.07;;;14.20;99.90;;;;;;5046374;28;20554;-65
2021/10/17 02:33:32;;;;;;;15.40;13.90;;;14.10;99.90;;;;;;5042987;28;20923;-67
2021/10/17 02:36:05;;;;;;;15.13;13.73;;;14.00;99.90;;;;;;5053498;28;20854;-69
2021/10/17 02:38:41;;;;;;;17.63;16.00;;;13.90;99.90;;;;;;5043846;28;20964;-69
2021/10/17 02:41:12;;;;;;;17.23;15.30;;;13.90;99.90;;;;;;5047943;28;20575;-69
2021/10/17 02:43:43;;;;;;;17.87;16.13;;;13.80;99.90;;;;;;5051932;28;20534;-69
2021/10/17 02:46:14;;;;;;;18.03;16.23;;;13.70;99.90;;;;;;5066983;28;20822;-68
2021/10/17 02:48:45;;;;;;;16.40;14.80;;;13.70;99.90;;;;;;5050973;28;20463;-66
2021/10/17 02:51:17;;;;;;;16.63;14.73;;;13.70;99.90;;;;;;5072388;28;20451;-64
2021/10/17 02:53:49;;;;;;;16.20;14.70;;;13.60;99.90;;;;;;5058136;28;21019;-65
2021/10/17 02:56:20;;;;;;;16.50;14.90;;;13.50;99.90;;;;;;5070249;28;20469;-65
2021/10/17 02:58:51;;;;;;;16.40;14.80;;;13.50;99.90;;;;;;5066849;28;20452;-66
2021/10/17 03:01:22;;;;;;;16.70;15.00;;;13.40;99.90;;;;;;5050154;28;20464;-65
2021/10/17 03:03:53;;;;;;;17.17;15.47;;;13.40;99.90;;;;;;5056636;28;20469;-64
2021/10/17 03:06:28;;;;;;;16.97;15.40;;;13.30;99.90;;;;;;5042320;28;20500;-63
2021/10/17 03:08:59;;;;;;;16.30;14.70;;;13.30;99.90;;;;;;5064914;28;20550;-63
2021/10/17 03:11:29;;;;;;;16.77;15.10;;;13.30;99.90;;;;;;5053495;28;20977;-63
2021/10/17 03:14:00;;;;;;;16.57;14.87;;;13.30;99.90;;;;;;5066027;28;20940;-63
2021/10/17 03:16:31;;;;;;;16.57;14.90;;;13.20;99.90;;;;;;5063137;28;20477;-63
2021/10/17 03:19:02;;;;;;;17.30;15.50;;;13.10;99.90;;;;;;5046759;28;20456;-63
2021/10/17 03:21:34;;;;;;;17.00;15.30;;;13.10;99.90;;;;;;5048219;28;20491;-63
2021/10/17 03:24:06;;;;;;;16.97;15.23;;;13.10;99.90;;;;;;5048232;28;20498;-63
2021/10/17 03:26:36;;;;;;;17.17;15.13;;;13.00;99.90;;;;;;5052241;28;20596;-64
2021/10/17 03:29:07;;;;;;;17.30;15.50;;;13.00;99.90;;;;;;5051712;28;20523;-63
2021/10/17 03:31:39;;;;;;;17.53;15.13;;;12.90;99.90;;;;;;5047184;28;20483;-63
2021/10/17 03:34:10;;;;;;;16.27;14.77;;;12.90;99.90;;;;;;5049942;28;20463;-63
2021/10/17 03:36:42;;;;;;;16.90;15.40;;;12.90;99.90;;;;;;5053146;28;20949;-63
2021/10/17 03:39:13;;;;;;;17.27;15.50;;;12.80;99.90;;;;;;5054900;28;20452;-63
2021/10/17 03:41:46;;;;;;;18.67;16.40;;;12.80;99.90;;;;;;5050333;28;20926;-63
2021/10/17 03:44:17;;;;;;;17.57;15.83;;;12.80;99.90;;;;;;5067325;28;20447;-63
2021/10/17 03:46:48;;;;;;;17.23;15.47;;;12.70;99.90;;;;;;5062812;28;20491;-62
2021/10/17 03:49:19;;;;;;;18.40;16.50;;;12.70;99.90;;;;;;5063391;28;20455;-63
2021/10/17 03:51:51;;;;;;;24.97;22.50;;;12.70;99.90;;;;;;5055346;28;20926;-63
2021/10/17 03:54:22;;;;;;;24.57;22.13;;;12.60;99.90;;;;;;5061990;28;20961;-63
2021/10/17 03:56:53;;;;;;;26.40;24.10;;;12.60;99.90;;;;;;5055035;28;20468;-62
2021/10/17 03:59:23;;;;;;;27.17;24.67;;;12.60;99.90;;;;;;5050909;28;20516;-63
2021/10/17 04:01:54;;;;;;;29.97;26.77;;;12.50;99.90;;;;;;5063647;28;20464;-63
2021/10/17 04:04:25;;;;;;;28.20;25.40;;;12.60;99.90;;;;;;5067798;28;20458;-63
2021/10/17 04:06:58;;;;;;;28.53;25.57;;;12.40;99.90;;;;;;5057118;28;20566;-64
2021/10/17 04:09:29;;;;;;;28.47;25.57;;;12.40;99.90;;;;;;5069961;28;20537;-64
2021/10/17 04:12:00;;;;;;;28.13;25.33;;;12.40;99.90;;;;;;5062376;28;20521;-64
2021/10/17 04:14:31;;;;;;;28.30;25.60;;;12.30;99.90;;;;;;5053488;28;20460;-65
2021/10/17 04:17:06;;;;;;;29.50;26.73;;;12.30;99.90;;;;;;5066577;28;20542;-63
2021/10/17 04:19:37;;;;;;;33.03;27.13;;;12.20;99.90;;;;;;5058719;28;20494;-64
2021/10/17 04:22:10;;;;;;;28.70;25.97;;;12.30;99.90;;;;;;5053718;28;20526;-64
2021/10/17 04:24:41;;;;;;;29.17;25.73;;;12.30;99.90;;;;;;5047127;28;21000;-64
2021/10/17 04:27:13;;;;;;;25.87;23.37;;;12.20;99.90;;;;;;5044217;28;20481;-64
2021/10/17 04:29:44;;;;;;;29.13;26.00;;;12.10;99.90;;;;;;5040641;28;20834;-64
2021/10/17 04:32:15;;;;;;;30.93;27.90;;;12.10;99.90;;;;;;5050627;28;20901;-65
2021/10/17 04:34:46;;;;;;;30.50;27.00;;;12.00;99.90;;;;;;5058541;28;20456;-64
2021/10/17 04:37:18;;;;;;;30.10;27.00;;;12.00;99.90;;;;;;5056772;28;20452;-65
2021/10/17 04:39:49;;;;;;;30.43;27.43;;;12.00;99.90;;;;;;5055490;28;20460;-64
2021/10/17 04:42:20;;;;;;;29.23;26.60;;;12.00;99.90;;;;;;5044359;28;20460;-63
2021/10/17 04:44:55;;;;;;;31.80;28.40;;;12.10;99.90;;;;;;5059094;28;20790;-64
2021/10/17 04:47:26;;;;;;;30.93;27.83;;;12.00;99.90;;;;;;5046509;28;20495;-64
2021/10/17 04:49:57;;;;;;;30.20;27.40;;;12.00;99.90;;;;;;5049676;28;20472;-65
2021/10/17 04:52:29;;;;;;;31.47;28.17;;;12.00;99.90;;;;;;5051314;28;20475;-63
2021/10/17 04:55:00;;;;;;;30.07;27.13;;;12.00;99.90;;;;;;5055312;28;20470;-64
2021/10/17 04:57:34;;;;;;;29.20;26.50;;;12.00;99.90;;;;;;5058760;28;20476;-63
2021/10/17 05:00:11;;;;;;;29.33;26.47;;;12.00;99.90;;;;;;5050704;28;20464;-64
2021/10/17 05:02:42;;;;;;;28.20;25.70;;;12.00;99.90;;;;;;5064933;28;20565;-64
2021/10/17 05:05:16;;;;;;;29.23;26.50;;;12.00;99.90;;;;;;5052995;28;20486;-64
2021/10/17 05:07:49;;;;;;;31.70;27.97;;;12.00;99.90;;;;;;5044927;28;21008;-63
2021/10/17 05:10:20;;;;;;;29.57;26.80;;;12.00;99.90;;;;;;5045024;28;21005;-63
2021/10/17 05:12:51;;;;;;;32.37;29.03;;;12.10;99.90;;;;;;5051992;28;20786;-63
2021/10/17 05:15:21;;;;;;;29.40;26.70;;;12.10;99.90;;;;;;5046172;28;20571;-64
2021/10/17 05:17:52;;;;;;;31.10;28.33;;;12.10;99.90;;;;;;5054694;28;20554;-63
2021/10/17 05:20:23;;;;;;;35.07;31.80;;;12.20;99.90;;;;;;5056516;28;20464;-63
2021/10/17 05:22:55;;;;;;;34.93;31.30;;;12.30;99.90;;;;;;5051819;28;20456;-64
2021/10/17 05:25:26;;;;;;;33.07;29.87;;;12.40;99.90;;;;;;5047827;28;21028;-63
2021/10/17 05:27:57;;;;;;;29.40;26.37;;;12.40;99.90;;;;;;5042515;28;20495;-63
2021/10/17 05:30:28;;;;;;;30.00;27.20;;;12.50;99.90;;;;;;5049696;28;20467;-63
2021/10/17 05:32:59;;;;;;;30.70;27.37;;;12.50;99.90;;;;;;5041813;28;20481;-64
2021/10/17 05:35:30;;;;;;;30.03;27.13;;;12.60;99.90;;;;;;5056678;28;20803;-63
2021/10/17 05:38:02;;;;;;;31.63;28.47;;;12.60;99.90;;;;;;5049104;28;20475;-66
2021/10/17 05:40:33;;;;;;;31.53;28.43;;;12.60;99.90;;;;;;5044661;28;20480;-63
2021/10/17 05:43:04;;;;;;;30.73;27.93;;;12.60;99.90;;;;;;5056044;28;20452;-63
2021/10/17 05:45:35;;;;;;;32.90;29.77;;;12.60;99.90;;;;;;5042105;28;20964;-63
2021/10/17 05:48:06;;;;;;;32.57;29.40;;;12.50;99.90;;;;;;5039518;28;20491;-63
2021/10/17 05:50:37;;;;;;;33.40;30.20;;;12.50;99.90;;;;;;5058374;28;20467;-63
2021/10/17 05:53:09;;;;;;;32.23;28.93;;;12.40;99.90;;;;;;5064603;28;20471;-63
2021/10/17 05:55:41;;;;;;;30.83;27.70;;;12.40;99.90;;;;;;5045092;28;20472;-63
2021/10/17 05:58:11;;;;;;;31.87;28.70;;;12.30;99.90;;;;;;5052925;28;20805;-63
2021/10/17 06:00:42;;;;;;;32.30;29.20;;;12.30;99.90;;;;;;5057207;28;20463;-63
2021/10/17 06:03:13;;;;;;;31.67;28.63;;;12.10;99.90;;;;;;5065264;28;20995;-63
2021/10/17 06:05:44;;;;;;;30.20;27.10;;;12.10;99.90;;;;;;5054248;28;21119;-63
2021/10/17 06:08:18;;;;;;;32.50;28.23;;;12.00;99.90;;;;;;5050165;28;20496;-64
2021/10/17 06:10:49;;;;;;;31.40;28.40;;;12.00;99.90;;;;;;5068336;28;20524;-63
2021/10/17 06:13:20;;;;;;;30.87;27.93;;;11.90;99.90;;;;;;5053197;28;20486;-63
2021/10/17 06:15:51;;;;;;;34.23;30.80;;;11.90;99.90;;;;;;5043228;28;20558;-64
2021/10/17 06:18:23;;;;;;;32.20;29.20;;;11.90;99.90;;;;;;5043900;28;20471;-63
2021/10/17 06:20:54;;;;;;;33.50;30.50;;;11.80;99.90;;;;;;5050409;28;20491;-63
2021/10/17 06:23:26;;;;;;;31.33;28.30;;;11.80;99.90;;;;;;5050336;28;20476;-63
2021/10/17 06:25:57;;;;;;;33.13;29.87;;;11.70;99.90;;;;;;5052497;28;20590;-63
2021/10/17 06:28:28;;;;;;;31.90;28.90;;;11.70;99.90;;;;;;5060985;28;20492;-63
2021/10/17 06:30:59;;;;;;;32.80;29.73;;;11.70;99.90;;;;;;5055281;28;20496;-63
2021/10/17 06:33:29;;;;;;;33.43;30.03;;;11.70;99.90;;;;;;5043947;28;20477;-63
2021/10/17 06:36:00;;;;;;;32.83;29.73;;;11.70;99.90;;;;;;5053791;28;20471;-63
2021/10/17 06:38:33;;;;;;;33.67;30.37;;;11.70;99.90;;;;;;5052675;28;20467;-63
2021/10/17 06:41:04;;;;;;;34.47;31.27;;;11.70;99.90;;;;;;5055073;28;20977;-63
2021/10/17 06:43:34;;;;;;;33.30;30.10;;;11.70;99.90;;;;;;5051860;28;20537;-63
2021/10/17 06:46:05;;;;;;;33.93;30.77;;;11.70;99.90;;;;;;5053484;28;21011;-64
2021/10/17 06:48:36;;;;;;;33.20;29.83;;;11.70;99.90;;;;;;5047407;28;21019;-63
2021/10/17 06:51:07;;;;;;;32.73;29.70;;;11.70;99.90;;;;;;5057834;28;20478;-63
2021/10/17 06:53:39;;;;;;;31.70;28.50;;;11.70;99.90;;;;;;5064001;28;20475;-63
2021/10/17 06:56:10;;;;;;;30.90;27.97;;;11.80;99.90;;;;;;5047291;28;20952;-63
2021/10/17 06:58:41;;;;;;;32.60;29.17;;;11.90;99.90;;;;;;5046929;28;20464;-63
2021/10/17 07:01:11;;;;;;;32.47;29.30;;;12.00;99.90;;;;;;5047739;28;20940;-63
2021/10/17 07:03:42;;;;;;;30.30;27.17;;;12.00;99.90;;;;;;5059788;28;20506;-63
2021/10/17 07:06:14;;;;;;;31.43;28.30;;;12.00;99.90;;;;;;5052146;28;20973;-63
2021/10/17 07:08:47;;;;;;;28.37;25.67;;;12.10;99.90;;;;;;5051196;28;20491;-63
2021/10/17 07:11:17;;;;;;;32.40;28.40;;;12.20;99.90;;;;;;5050515;28;20819;-64
2021/10/17 07:13:48;;;;;;;31.10;28.00;;;12.30;99.90;;;;;;5052175;28;20463;-63
2021/10/17 07:16:19;;;;;;;29.23;26.13;;;12.30;99.90;;;;;;5049454;28;20468;-64
2021/10/17 07:18:50;;;;;;;29.17;26.17;;;12.40;99.90;;;;;;5051242;28;20463;-63
2021/10/17 07:21:20;;;;;;;28.97;25.90;;;12.30;99.90;;;;;;5058958;28;20474;-63
2021/10/17 07:23:53;;;;;;;27.80;25.00;;;12.30;99.90;;;;;;5053668;28;20845;-63
2021/10/17 07:26:24;;;;;;;28.37;25.50;;;12.30;99.90;;;;;;5051143;28;20472;-63
2021/10/17 07:28:54;;;;;;;29.07;26.23;;;12.20;99.90;;;;;;5059774;28;20819;-63
2021/10/17 07:31:25;;;;;;;31.50;26.30;;;12.10;99.90;;;;;;5046882;28;20472;-63
2021/10/17 07:33:56;;;;;;;26.50;24.00;;;12.10;99.90;;;;;;5056652;28;20618;-63
2021/10/17 07:36:27;;;;;;;27.83;24.97;;;12.00;99.90;;;;;;5058522;28;20456;-63
2021/10/17 07:39:00;;;;;;;28.23;25.53;;;12.00;99.90;;;;;;5056731;28;20468;-63
2021/10/17 07:41:30;;;;;;;29.87;26.87;;;12.10;99.90;;;;;;5069630;28;20940;-63
2021/10/17 07:44:01;;;;;;;28.57;25.70;;;12.00;99.90;;;;;;5060160;28;20468;-64
2021/10/17 07:46:33;;;;;;;29.83;26.77;;;11.90;99.90;;;;;;5050855;28;20484;-63
2021/10/17 07:49:04;;;;;;;29.00;26.00;;;11.80;99.90;;;;;;5040686;28;20510;-63
2021/10/17 07:51:35;;;;;;;28.30;25.43;;;11.70;99.90;;;;;;5062729;28;20487;-63
2021/10/17 07:54:08;;;;;;;28.80;25.80;;;11.70;99.90;;;;;;5052319;28;20479;-63
2021/10/17 07:56:39;;;;;;;28.57;25.67;;;11.60;99.90;;;;;;5048326;28;20472;-63
2021/10/17 07:59:10;;;;;;;27.50;24.80;;;11.50;99.90;;;;;;5059291;28;20471;-63
2021/10/17 08:01:40;;;;;;;28.30;25.60;;;11.40;99.90;;;;;;5046842;28;20993;-63
2021/10/17 08:04:11;;;;;;;27.93;25.20;;;11.30;99.90;;;;;;5066621;28;20460;-63
2021/10/17 08:06:42;;;;;;;29.30;26.30;;;11.30;99.90;;;;;;5059314;28;20471;-63
2021/10/17 08:09:15;;;;;;;27.10;24.60;;;11.20;99.90;;;;;;5059081;28;20495;-63
2021/10/17 08:11:46;;;;;;;28.97;26.17;;;11.20;99.90;;;;;;5039680;28;20509;-64
2021/10/17 08:14:17;;;;;;;26.10;23.80;;;11.20;99.90;;;;;;5059116;28;21011;-64
2021/10/17 08:16:48;;;;;;;26.80;24.30;;;11.10;99.90;;;;;;5056028;28;20732;-63
2021/10/17 08:19:19;;;;;;;27.67;24.00;;;11.10;99.90;;;;;;5064939;28;20485;-63
2021/10/17 08:21:50;;;;;;;29.07;25.77;;;11.00;99.90;;;;;;5056741;28;20506;-63
2021/10/17 08:24:22;;;;;;;27.33;24.83;;;11.00;99.90;;;;;;5043269;28;20955;-63
2021/10/17 08:26:53;;;;;;;28.53;25.63;;;10.90;99.90;;;;;;5062480;28;20482;-62
2021/10/17 08:29:23;;;;;;;27.50;24.70;;;10.90;99.90;;;;;;5053717;28;20480;-62
2021/10/17 08:31:54;;;;;;;30.20;27.20;;;10.80;99.90;;;;;;5058620;28;20559;-63
2021/10/17 08:34:25;;;;;;;29.87;26.93;;;10.80;99.90;;;;;;5054553;28;20534;-63
2021/10/17 08:36:56;;;;;;;28.93;25.97;;;10.80;99.90;;;;;;5070342;28;20455;-62
2021/10/17 08:39:31;;;;;;;30.10;27.10;;;10.80;99.90;;;;;;5052683;28;20476;-63
2021/10/17 08:42:02;;;;;;;29.80;26.83;;;10.70;99.90;;;;;;5063806;28;20456;-63
2021/10/17 08:44:33;;;;;;;29.50;26.30;;;10.70;99.90;;;;;;5049200;28;20464;-63
2021/10/17 08:47:04;;;;;;;29.50;26.60;;;10.70;99.90;;;;;;5053365;28;20476;-63
2021/10/17 08:49:36;;;;;;;26.27;23.63;;;10.60;99.90;;;;;;5047096;28;20529;-63
2021/10/17 08:52:10;;;;;;;30.00;26.73;;;10.60;99.90;;;;;;5061360;28;20458;-63
2021/10/17 08:54:45;;;;;;;28.50;25.90;;;10.60;99.90;;;;;;5039906;28;20468;-63
2021/10/17 08:57:16;;;;;;;30.00;27.03;;;10.60;99.90;;;;;;5052791;28;20475;-63
2021/10/17 08:59:47;;;;;;;29.10;26.10;;;10.50;99.90;;;;;;5055655;28;20455;-63
2021/10/17 09:02:19;;;;;;;29.13;26.30;;;10.50;99.90;;;;;;5058810;28;20464;-63
2021/10/17 09:05:00;;;;;;;26.70;24.10;;;10.50;99.90;;;;;;5059234;28;20467;-63
2021/10/17 09:07:31;;;;;;;29.47;26.40;;;10.50;99.90;;;;;;5064567;28;20486;-63
2021/10/17 09:10:12;;;;;;;27.02;24.45;;;10.50;99.90;;;;;;5053368;28;20480;-63
2021/10/17 09:12:43;;;;;;;30.00;26.87;;;10.40;99.90;;;;;;5053944;28;20223;-63
2021/10/17 09:15:35;;;;;;;31.33;26.60;;;10.40;99.90;;;;;;5044950;28;20482;-64
2021/10/17 09:18:14;;;;;;;29.03;26.20;;;10.30;99.90;;;;;;5042374;28;20875;-63
2021/10/17 09:20:59;;;;;;;30.13;25.92;;;10.40;99.90;;;;;;5046695;28;20470;-62
2021/10/17 09:23:41;;;;;;;28.00;25.40;;;10.40;99.90;;;;;;5046977;28;20241;-63
2021/10/17 09:26:18;;;;;;;29.53;26.63;;;10.50;99.90;;;;;;5050207;28;20472;-62
2021/10/17 09:28:51;;;;;;;29.27;26.37;;;10.50;99.90;;;;;;5036213;28;21223;-63
2021/10/17 09:31:23;;;;;;;30.37;27.30;;;10.60;99.90;;;;;;5067049;28;20809;-63
2021/10/17 09:33:55;;;;;;;31.37;27.60;;;10.60;99.90;;;;;;5049493;28;20475;-63
2021/10/17 09:36:28;;;;;;;28.10;25.20;;;10.60;99.90;;;;;;5065920;28;20452;-62
2021/10/17 09:39:08;;;;;;;27.57;24.87;;;10.60;99.90;;;;;;5058679;28;20467;-62
2021/10/17 09:41:51;;;;;;;28.97;25.97;;;10.60;99.90;;;;;;5046439;28;20482;-62
2021/10/17 09:44:22;;;;;;;27.97;25.03;;;10.60;99.90;;;;;;5059457;28;20468;-63
2021/10/17 09:46:59;;;;;;;27.00;24.23;;;10.60;99.90;;;;;;5061094;28;20472;-63
2021/10/17 09:49:31;;;;;;;29.87;26.70;;;10.50;99.90;;;;;;5056147;28;20488;-63
2021/10/17 09:52:17;;;;;;;27.67;25.07;;;10.50;99.90;;;;;;5057943;28;20547;-63
2021/10/17 09:54:49;;;;;;;28.00;25.10;;;10.60;99.90;;;;;;5043449;28;20473;-62
2021/10/17 09:57:21;;;;;;;27.87;25.07;;;10.50;99.90;;;;;;5042263;28;21008;-63
2021/10/17 09:59:52;;;;;;;27.50;24.60;;;10.50;99.90;;;;;;5057790;28;20521;-63
2021/10/17 10:02:24;;;;;;;26.17;23.57;;;10.40;99.90;;;;;;5057564;28;20844;-62
2021/10/17 10:04:56;;;;;;;25.33;22.83;;;10.40;99.90;;;;;;5056023;28;20476;-63
2021/10/17 10:07:28;;;;;;;28.33;25.40;;;10.50;99.90;;;;;;5043157;28;20460;-63
2021/10/17 10:10:02;;;;;;;28.88;25.98;;;10.50;99.90;;;;;;5057458;28;20487;-63
2021/10/17 10:12:35;;;;;;;27.27;24.23;;;10.50;99.90;;;;;;5052927;28;20309;-63
2021/10/17 10:15:09;;;;;;;28.03;25.33;;;10.50;99.90;;;;;;5048908;28;20890;-62
2021/10/17 10:17:44;;;;;;;28.80;25.80;;;10.60;99.90;;;;;;5041227;28;20475;-63
2021/10/17 10:20:15;;;;;;;26.83;24.13;;;10.60;99.90;;;;;;5057600;28;20845;-63
2021/10/17 10:22:46;;;;;;;28.57;25.87;;;10.70;99.90;;;;;;5053902;28;20476;-63
2021/10/17 10:25:18;;;;;;;28.27;25.37;;;10.70;99.90;;;;;;5045812;28;20463;-62
2021/10/17 10:27:51;;;;;;;27.93;25.23;;;10.70;99.90;;;;;;5046035;28;20460;-62
2021/10/17 10:30:27;;;;;;;25.60;23.00;;;10.80;99.90;;;;;;5046502;28;20830;-63
2021/10/17 10:33:21;;;;;;;28.27;25.50;;;10.80;99.90;;;;;;5051869;28;20467;-63
2021/10/17 10:36:12;;;;;;;27.70;24.40;;;10.80;99.90;;;;;;5030257;28;20981;-63
2021/10/17 10:39:10;;;;;;;27.60;24.80;;;10.90;99.90;;;;;;5053647;28;20560;-63
2021/10/17 10:41:56;;;;;;;25.93;23.37;;;10.90;99.90;;;;;;5044640;28;20562;-63
2021/10/17 10:44:40;;;;;;;26.13;23.73;;;10.90;99.90;;;;;;5040202;28;20848;-63
2021/10/17 10:47:25;;;;;;;24.57;22.13;;;10.90;99.90;;;;;;5035817;28;20479;-63
2021/10/17 10:49:57;;;;;;;25.00;22.40;;;10.80;99.90;;;;;;5055081;28;20480;-62
2021/10/17 10:52:45;;;;;;;24.87;22.57;;;10.80;99.90;;;;;;5052847;28;20467;-63
2021/10/17 10:55:43;;;;;;;25.57;23.10;;;10.80;99.90;;;;;;5046084;28;20547;-63
2021/10/17 10:58:25;;;;;;;24.13;21.63;;;10.80;99.90;;;;;;5065973;28;20846;-64
2021/10/17 11:00:58;;;;;;;24.53;22.20;;;10.90;99.90;;;;;;5049598;28;20479;-63
2021/10/17 11:03:43;;;;;;;24.87;22.23;;;10.80;99.90;;;;;;5051413;28;20871;-63
2021/10/17 11:06:20;;;;;;;24.23;21.93;;;10.80;99.90;;;;;;5052470;28;20447;-63
2021/10/17 11:09:25;;;;;;;23.77;21.27;;;10.80;99.90;;;;;;5055791;28;21000;-63
2021/10/17 11:11:57;;;;;;;23.10;20.70;;;10.80;99.90;;;;;;5049361;28;20491;-63
2021/10/17 11:14:29;;;;;;;22.60;20.50;;;10.80;99.90;;;;;;5050209;28;20472;-63
2021/10/17 11:17:07;;;;;;;23.20;20.87;;;10.80;99.90;;;;;;5055511;28;20971;-63
2021/10/17 11:19:38;;;;;;;22.50;20.30;;;10.80;99.90;;;;;;5070533;28;20779;-62
2021/10/17 11:22:09;;;;;;;25.03;22.63;;;10.70;99.90;;;;;;5064342;28;20475;-63
2021/10/17 11:24:40;;;;;;;25.00;22.50;;;10.70;99.90;;;;;;5049273;28;20478;-63
2021/10/17 11:27:12;;;;;;;24.03;21.50;;;10.70;99.90;;;;;;5065462;28;20463;-63
2021/10/17 11:29:45;;;;;;;24.33;21.93;;;10.70;99.90;;;;;;5060663;28;20455;-63
2021/10/17 11:32:20;;;;;;;24.00;21.70;;;10.60;99.90;;;;;;5053333;28;20499;-63
2021/10/17 11:34:59;;;;;;;24.00;21.55;;;10.50;99.90;;;;;;5056075;28;20898;-63
2021/10/17 11:37:31;;;;;;;24.37;21.73;;;10.50;99.90;;;;;;5047874;28;20249;-63
2021/10/17 11:40:04;;;;;;;21.73;19.63;;;10.50;99.90;;;;;;5053597;28;20456;-63
2021/10/17 11:42:45;;;;;;;24.57;22.17;;;10.50;99.90;;;;;;5061570;28;20223;-65
2021/10/17 11:45:24;;;;;;;21.70;19.60;;;10.50;99.90;;;;;;5057411;28;20456;-64
2021/10/17 11:47:58;;;;;;;21.75;19.67;;;10.40;99.90;;;;;;5052018;28;20467;-63
2021/10/17 11:50:30;;;;;;;23.50;21.08;;;10.40;99.90;;;;;;5061923;28;20244;-63
2021/10/17 11:53:03;;;;;;;22.03;19.93;;;10.40;99.90;;;;;;5046015;28;20314;-64
2021/10/17 11:55:39;;;;;;;22.63;20.40;;;10.20;99.90;;;;;;5047113;28;20472;-62
2021/10/17 11:58:16;;;;;;;23.40;20.97;;;10.20;99.90;;;;;;5046283;28;20217;-62
2021/10/17 12:00:48;;;;;;;23.53;21.33;;;10.30;99.90;;;;;;5045250;28;20470;-62
2021/10/17 12:03:23;;;;;;;24.13;21.67;;;10.30;99.90;;;;;;5045557;28;20467;-62
2021/10/17 12:05:55;;;;;;;23.40;21.00;;;10.30;99.90;;;;;;5064351;28;20239;-62
2021/10/17 12:08:27;;;;;;;24.47;22.07;;;10.40;99.90;;;;;;5048301;28;20468;-62
2021/10/17 12:11:01;;;;;;;22.23;19.77;;;10.50;99.90;;;;;;5046448;28;20543;-62
2021/10/17 12:13:40;;;;;;;21.57;19.47;;;10.60;99.90;;;;;;5044527;28;20228;-62
2021/10/17 12:16:12;;;;;;;23.43;21.00;;;10.70;99.90;;;;;;5055183;28;20482;-62
2021/10/17 12:18:49;;;;;;;24.43;20.60;;;10.70;99.90;;;;;;5044973;28;20467;-62
2021/10/17 12:21:21;;;;;;;20.90;18.93;;;10.70;99.90;;;;;;5062190;28;20456;-62
2021/10/17 12:23:52;;;;;;;22.33;20.27;;;10.70;99.90;;;;;;5055774;28;20476;-62
2021/10/17 12:26:24;;;;;;;21.50;19.60;;;10.80;99.90;;;;;;5044277;28;20479;-62
2021/10/17 12:29:10;;;;;;;22.80;20.10;;;10.80;99.90;;;;;;5047094;28;20456;-62
2021/10/17 12:31:43;;;;;;;22.47;20.27;;;10.90;99.90;;;;;;5044275;28;20491;-62
2021/10/17 12:34:16;;;;;;;22.20;20.10;;;10.80;99.90;;;;;;5046602;28;20558;-62
2021/10/17 12:36:47;;;;;;;21.47;19.37;;;10.80;99.90;;;;;;5048596;28;20464;-62
2021/10/17 12:39:21;;;;;;;21.87;19.57;;;10.90;99.90;;;;;;5057223;28;20456;-62
2021/10/17 12:41:59;;;;;;;20.53;17.30;;;10.90;99.90;;;;;;5054897;28;20531;-62
2021/10/17 12:44:30;;;;;;;24.50;20.73;;;10.90;99.90;;;;;;5051855;28;21021;-62
2021/10/17 12:47:05;;;;;;;21.03;18.80;;;10.90;99.90;;;;;;5046008;28;20480;-62
2021/10/17 12:49:42;;;;;;;19.53;17.53;;;10.70;99.90;;;;;;5059014;28;20466;-62
2021/10/17 12:52:26;;;;;;;19.67;17.57;;;10.70;99.90;;;;;;5046568;28;20658;-61
2021/10/17 12:54:59;;;;;;;20.93;18.70;;;10.80;99.90;;;;;;5044928;28;20556;-62
2021/10/17 12:57:30;;;;;;;20.87;18.80;;;10.70;99.90;;;;;;5059895;28;20912;-62
2021/10/17 13:00:02;;;;;;;22.70;20.40;;;10.70;99.90;;;;;;5052134;28;20970;-62